Vincenzo De Angelis

Scout - Lazio
3 Dez 2028
Sonntag
Verarbeitung

Persönlichkeit

Anpassungsfähigkeit (6) Ehrgeiz (11) Kontroverse (4) Loyalität (15) Druck (4) Professionalität (1) Fairness (19) Temperament (11)

Profil

Trainerstil Demokratisch
Lizenz Kontinentale A
Entschlossenheit 6
Menschenführung 13
Motivation 11
Disziplin 6
Arbeitszufriedenheit
75%
Ermüdung
0%
Rolle Scout
Gehalt 24.3K p/W
Vertrag 14.03.2029

Leistung

Verhalten Gut
Trainingseffektivität
30%
Spielerentwicklung
60%
Verletzungsprävention
30%
Taktische Umsetzung
40%

Letzte Ereignisse

Nahm an einer Scouting-Besprechung teil jetzt
Empfahl ein Transferziel jetzt
Nahm an einer Scouting-Besprechung teil 7T her
Empfahl ein Transferziel 7T her
Empfahl ein Transferziel 7T her
Empfahl ein Transferziel 7T her
Empfahl ein Transferziel 14T her
Empfahl ein Transferziel 14T her

Aktuell beobachtet

79
Spieler Verein Status Fähigkeit Vertrauen Beobachtet Zuletzt beobachtet Letzte Stimme
Samuele Inácio Union Berlin Aktiv 131 / 134 40% 1 14.08.2028 -
Chris Rigg West Ham United Aktiv 142 / 147 40% 1 14.08.2028 -
Mattia Felici Cagliari Verloren 138 / 141 72% 1 07.08.2028 -
James Rodríguez Pescara Verloren 137 / 136 72% 1 31.07.2028 -
Sebastiano Esposito Cagliari Verloren 139 / 140 72% 1 19.06.2028 -
Ebenezer Akinsanmiro Inter Aktiv 132 / 135 72% 1 12.06.2028 Befürworten
Christian Pulisic AC Milan Aktiv 157 / 166 72% 1 02.01.2028 Befürworten
Daniel Banjaqui Benfica Aktiv 122 / 126 40% 1 31.12.2027 -
Fodé Sylla Sion Aktiv 110 / 120 40% 1 23.08.2027 -
Malick Yalcouyé Brighton Aktiv 130 / 135 40% 1 23.08.2027 -
Jayden Addai Bari Aktiv 124 / 133 40% 1 14.06.2027 -
Antoine Hainaut Venezia Aktiv 125 / 122 72% 1 07.06.2027 Befürworten
Eliás Montiel Borussia Dortmund Aktiv 135 / 142 40% 1 31.05.2027 -
Bade Aluko Leicester City Aktiv 120 / 116 40% 3 30.05.2027 -
Mateus Mané Burnley Aktiv 131 / 142 40% 1 30.05.2027 -
Riyad Idrissi Cagliari Aktiv 122 / 135 40% 4 29.05.2027 -
Samuele di Benedetto Twente Aktiv 108 / 124 40% 1 29.05.2027 -
Nejc Viher NK Maribor Aktiv 112 / 122 40% 2 27.05.2027 -
Raoul Bellanova Atalanta Aktiv 156 / 152 40% 12 26.05.2027 -
Billy Gilmour Napoli Aktiv 147 / 150 40% 4 26.05.2027 -
Curtis Jones Inter Aktiv 150 / 153 40% 11 25.05.2027 -
Diego Moreira AC Milan Aktiv 144 / 142 40% 8 24.05.2027 -
Borja Sainz Udinese Aktiv 144 / 143 40% 4 24.05.2027 -
Ousseynou Seck Randers Aktiv 104 / 130 40% 2 23.05.2027 -
Alexis Saelemaekers AC Milan Verloren 155 / 154 40% 6 22.05.2027 -
Romano Schmid Napoli Aktiv 137 / 140 40% 1 22.05.2027 -
Nicolò Zaniolo Udinese Aktiv 139 / 145 40% 5 19.05.2027 -
Nicolò Cambiaghi Bologna Aktiv 145 / 137 40% 2 19.05.2027 -
Giacomo Raspadori Atalanta Aktiv 146 / 149 40% 5 18.05.2027 -
Kobbie Mainoo Manchester United Aktiv 158 / 150 40% 8 16.05.2027 -
Roger Fernandes Galatasaray Aktiv 140 / 129 40% 1 16.05.2027 -
Khéphren Thuram Juventus Aktiv 155 / 160 40% 10 12.05.2027 -
Pierre Kalulu Juventus Aktiv 150 / 161 40% 6 12.05.2027 -
Andrea Cambiaso Juventus Aktiv 157 / 151 40% 9 10.05.2027 -
Franz-Ethan Meichtry Genoa Aktiv 129 / 125 40% 2 08.05.2027 -
Victor Hernandez Santa Fe Aktiv 119 / 124 40% 3 08.05.2027 -
Ezra Mayers West Ham United Aktiv 115 / 124 40% 2 07.05.2027 -
Enzo Koffi Olympique de Marseille Aktiv 104 / 108 40% 2 05.05.2027 -
Bence Dárdai VfL Wolfsburg Aktiv 132 / 133 40% 2 05.05.2027 -
Sascha Britschgi AC Milan Aktiv 117 / 121 40% 3 28.04.2027 -
Sindre Walle Egeli Udinese Aktiv 134 / 130 40% 2 28.04.2027 -
Malo Gusto Chelsea Aktiv 155 / 148 40% 2 22.04.2027 -
Mathys Tel Tottenham Aktiv 150 / 147 40% 2 22.04.2027 -
Luka Vušković Tottenham Aktiv 147 / 145 40% 3 21.04.2027 -
Lucas Agazzi Villarreal Aktiv 126 / 124 40% 2 21.04.2027 -
Jonathan Pérez Cruz Azul Aktiv 115 / 113 40% 1 21.04.2027 -
Savinho Tottenham Aktiv 154 / 162 40% 3 14.04.2027 -
Celías Ingenthron Platense Aktiv 103 / 118 40% 1 07.04.2027 -
Halam Loboa Sevilla Aktiv 124 / 128 40% 1 07.04.2027 -
Kirill Glebov CSKA Moscow Aktiv 137 / 140 40% 2 04.04.2027 -
Lucas Da Cunha Como Aktiv 137 / 150 40% 4 03.04.2027 -
Jakub Suslov FK Senica Aktiv 100 / 115 40% 1 30.03.2027 -
Eivind Helland AC Milan Aktiv 123 / 135 40% 2 28.03.2027 -
Edon Zhegrova Juventus Aktiv 145 / 141 40% 2 16.03.2027 -
Gonçalo Oliveira Benfica Aktiv 103 / 116 40% 1 13.03.2027 -
Crysencio Summerville Al-Hilal Aktiv 131 / 143 40% 2 25.02.2027 -
Lewis Ferguson Bologna Aktiv 136 / 141 40% 1 17.02.2027 -
Cemran Dansin Orlando Pirates Aktiv 109 / 126 40% 1 08.02.2027 -
Odilon Kossounou Atalanta Aktiv 137 / 143 40% 7 31.12.2026 -
Yann Aurel Bisseck Inter Aktiv 152 / 158 40% 2 31.12.2026 -
Giorgio Scalvini Atalanta Aktiv 141 / 148 40% 8 30.12.2026 -
Carlos Augusto Inter Aktiv 141 / 140 40% 6 28.12.2026 -
Alessandro Bastoni Inter Aktiv 162 / 171 40% 5 17.12.2026 -
Isak Hien Atalanta Aktiv 150 / 144 40% 1 14.12.2026 -
Oumar Solet Udinese Aktiv 149 / 150 40% 3 04.12.2026 -
Trevoh Chalobah Como Aktiv 147 / 160 40% 2 04.12.2026 -
Dodo Fiorentina Aktiv 146 / 145 40% 3 02.11.2026 -
Pedro Porro Tottenham Aktiv 139 / 151 40% 3 27.10.2026 -
Moisés Caicedo Chelsea Aktiv 166 / 172 40% 2 27.10.2026 -
Conor Gallagher Tottenham Aktiv 153 / 157 40% 1 27.10.2026 -
Jeremie Frimpong Liverpool Aktiv 163 / 162 40% 1 26.10.2026 -
Yehor Yarmoliuk Brentford Aktiv 152 / 150 40% 1 24.10.2026 -
Jarrad Branthwaite Everton Aktiv 153 / 159 40% 1 21.10.2026 -
Levi Colwill Chelsea Aktiv 158 / 165 40% 1 20.10.2026 -
Alex Scott Bournemouth Aktiv 145 / 154 40% 1 15.10.2026 -
Nico O'Reilly Manchester City Aktiv 155 / 159 40% 1 11.10.2026 -
Alexis Mac Allister Liverpool Aktiv 161 / 166 40% 1 05.10.2026 -
Ismaïla Sarr Crystal Palace Aktiv 145 / 147 40% 1 09.09.2026 -
Jérémy Doku Manchester City Aktiv 163 / 157 40% 1 01.08.2026 -